createdAt,value
2022-10-26T00:01:40.752Z,13.95
2022-10-26T00:04:10.771Z,15.20
2022-10-26T00:06:40.813Z,14.93
2022-10-26T00:09:10.770Z,16.83
2022-10-26T00:11:40.466Z,18.50
2022-10-26T00:14:10.155Z,15.23
2022-10-26T00:16:39.876Z,18.85
2022-10-26T00:19:09.771Z,15.13
2022-10-26T00:21:39.535Z,18.33
2022-10-26T00:24:09.610Z,23.45
2022-10-26T00:26:39.553Z,14.30
2022-10-26T00:29:09.433Z,16.33
2022-10-26T00:31:39.644Z,15.73
2022-10-26T00:34:09.520Z,15.43
2022-10-26T00:36:39.221Z,16.00
2022-10-26T00:39:08.939Z,18.27
2022-10-26T00:41:38.694Z,16.23
2022-10-26T00:44:26.776Z,10.80
2022-10-26T00:46:56.398Z,13.65
2022-10-26T00:49:26.353Z,12.32
2022-10-26T00:51:55.951Z,17.85
2022-10-26T00:54:25.919Z,18.20
2022-10-26T00:56:55.542Z,17.77
2022-10-26T00:59:25.252Z,13.80
2022-10-26T01:01:55.024Z,15.52
2022-10-26T01:04:24.680Z,13.82
2022-10-26T01:06:54.611Z,11.45
2022-10-26T01:09:25.614Z,13.75
2022-10-26T01:11:55.722Z,14.52
2022-10-26T01:14:25.589Z,14.05
2022-10-26T01:16:58.335Z,12.50
2022-10-26T01:19:34.341Z,12.50
2022-10-26T01:22:11.282Z,15.07
2022-10-26T01:24:40.962Z,10.43
2022-10-26T01:27:24.357Z,11.20
2022-10-26T01:30:00.038Z,16.88
2022-10-26T01:32:30.564Z,11.43
2022-10-26T01:35:05.762Z,13.25
2022-10-26T01:37:36.272Z,11.75
2022-10-26T01:40:09.488Z,11.88
2022-10-26T01:42:39.429Z,10.95
2022-10-26T01:45:10.079Z,9.23
2022-10-26T01:47:39.657Z,9.70
2022-10-26T01:50:09.480Z,6.93
2022-10-26T01:52:39.195Z,8.88
2022-10-26T01:55:10.128Z,16.85
2022-10-26T01:57:39.754Z,12.40
2022-10-26T02:00:12.824Z,19.60
2022-10-26T02:02:59.240Z,20.90
2022-10-26T02:05:32.993Z,9.10
2022-10-26T02:08:11.930Z,9.77
2022-10-26T02:10:41.813Z,14.05
2022-10-26T02:13:29.360Z,14.38
2022-10-26T02:15:59.131Z,10.32
2022-10-26T02:18:28.781Z,10.38
2022-10-26T02:20:59.601Z,8.88
2022-10-26T02:23:29.586Z,11.48
2022-10-26T02:25:59.782Z,6.68
2022-10-26T02:28:33.820Z,9.75
2022-10-26T02:31:04.001Z,11.85
2022-10-26T02:33:34.375Z,10.55
2022-10-26T02:36:04.247Z,11.27
2022-10-26T02:38:34.231Z,10.85
2022-10-26T02:41:04.041Z,7.28
2022-10-26T02:43:34.149Z,8.02
2022-10-26T02:46:05.454Z,6.28
2022-10-26T02:48:35.110Z,16.58
2022-10-26T02:51:12.716Z,8.50
2022-10-26T02:54:05.384Z,11.13
2022-10-26T02:56:53.558Z,11.13
2022-10-26T02:59:23.628Z,10.07
2022-10-26T03:01:53.664Z,21.83
2022-10-26T03:04:23.687Z,5.80
2022-10-26T03:06:56.916Z,7.47
2022-10-26T03:09:26.649Z,9.88
2022-10-26T03:11:56.376Z,13.02
2022-10-26T03:14:26.064Z,9.45
2022-10-26T03:16:55.804Z,8.13
2022-10-26T03:19:25.655Z,9.05
2022-10-26T03:21:55.237Z,8.93
2022-10-26T03:24:24.973Z,6.45
2022-10-26T03:26:57.066Z,6.18
2022-10-26T03:29:29.361Z,9.38
2022-10-26T03:31:59.714Z,9.68
2022-10-26T03:34:29.444Z,7.25
2022-10-26T03:36:59.041Z,10.70
2022-10-26T03:39:28.943Z,9.40
2022-10-26T03:42:02.252Z,8.88
2022-10-26T03:44:32.641Z,11.90
2022-10-26T03:47:02.315Z,6.40
2022-10-26T03:49:31.992Z,10.50
2022-10-26T03:52:01.865Z,9.38
2022-10-26T03:54:31.625Z,10.27
2022-10-26T03:57:01.340Z,6.10
2022-10-26T03:59:31.368Z,7.82
2022-10-26T04:02:01.200Z,8.35
2022-10-26T04:04:31.142Z,8.15
2022-10-26T04:07:00.781Z,12.63
2022-10-26T04:09:30.452Z,9.35
2022-10-26T04:12:00.586Z,6.32
2022-10-26T04:14:30.154Z,7.15
2022-10-26T04:16:59.754Z,8.73
2022-10-26T04:19:29.340Z,6.47
2022-10-26T04:21:59.341Z,8.77
2022-10-26T04:24:28.944Z,9.50
2022-10-26T04:26:58.561Z,11.32
2022-10-26T04:29:28.158Z,15.38
2022-10-26T04:31:58.054Z,10.75
2022-10-26T04:34:27.943Z,9.05
2022-10-26T04:36:57.785Z,8.43
2022-10-26T04:39:27.570Z,7.18
2022-10-26T04:41:57.268Z,13.25
2022-10-26T04:44:26.863Z,9.77
2022-10-26T04:46:56.669Z,9.90
2022-10-26T04:49:26.575Z,10.80
2022-10-26T04:51:56.462Z,8.98
2022-10-26T04:54:26.074Z,10.95
2022-10-26T04:56:55.937Z,12.70
2022-10-26T04:59:26.005Z,11.65
2022-10-26T05:01:55.670Z,6.85
2022-10-26T05:04:25.710Z,11.10
2022-10-26T05:06:55.921Z,10.90
2022-10-26T05:09:25.566Z,10.35
2022-10-26T05:11:55.450Z,11.68
2022-10-26T05:14:25.243Z,16.92
2022-10-26T05:16:57.116Z,14.18
2022-10-26T05:19:26.760Z,9.73
2022-10-26T05:21:56.450Z,10.85
2022-10-26T05:24:26.278Z,10.65
2022-10-26T05:26:55.966Z,14.02
2022-10-26T05:29:25.846Z,11.60
2022-10-26T05:31:55.533Z,14.93
2022-10-26T05:34:26.369Z,17.85
2022-10-26T05:36:56.608Z,11.77
2022-10-26T05:39:26.326Z,11.38
2022-10-26T05:41:55.986Z,13.23
2022-10-26T05:44:25.608Z,10.85
2022-10-26T05:46:55.398Z,12.25
2022-10-26T05:49:25.434Z,12.50
2022-10-26T05:51:55.229Z,14.18
2022-10-26T05:54:24.931Z,15.82
2022-10-26T05:56:54.856Z,16.25
2022-10-26T05:59:24.644Z,13.32
2022-10-26T06:01:54.760Z,17.33
2022-10-26T06:04:24.687Z,14.05
2022-10-26T06:06:58.872Z,10.45
2022-10-26T06:09:28.756Z,12.10
2022-10-26T06:11:58.769Z,7.43
2022-10-26T06:14:28.641Z,10.85
2022-10-26T06:17:03.298Z,13.93
2022-10-26T06:19:36.842Z,12.57
2022-10-26T06:22:23.633Z,12.32
2022-10-26T06:25:05.674Z,13.63
2022-10-26T06:27:56.279Z,11.43
2022-10-26T06:30:27.135Z,15.70
2022-10-26T06:33:05.924Z,12.20
2022-10-26T06:35:47.358Z,12.20
2022-10-26T06:38:20.867Z,12.90
2022-10-26T06:40:52.741Z,8.90
2022-10-26T06:43:29.530Z,13.15
2022-10-26T06:46:11.581Z,15.82
2022-10-26T06:48:47.451Z,12.93
2022-10-26T06:51:18.025Z,12.43
2022-10-26T06:53:50.708Z,11.80
2022-10-26T06:56:20.413Z,8.98
2022-10-26T06:58:50.250Z,16.42
2022-10-26T07:01:20.291Z,12.32
2022-10-26T07:03:50.308Z,14.85
2022-10-26T07:08:49.445Z,13.88
2022-10-26T07:11:19.342Z,7.90
2022-10-26T07:13:51.414Z,8.95
2022-10-26T07:16:22.738Z,13.73
2022-10-26T07:18:52.797Z,9.20
2022-10-26T07:21:22.913Z,12.48
2022-10-26T07:23:53.937Z,10.10
2022-10-26T07:26:23.727Z,13.85
2022-10-26T07:28:56.457Z,10.90
2022-10-26T07:31:27.365Z,13.20
2022-10-26T07:33:57.318Z,14.73
2022-10-26T07:36:27.220Z,13.45
2022-10-26T07:38:56.906Z,11.75
2022-10-26T07:41:26.635Z,17.40
2022-10-26T07:43:56.544Z,16.02
2022-10-26T07:46:26.284Z,19.17
2022-10-26T07:48:56.140Z,14.20
2022-10-26T07:51:25.895Z,10.98
2022-10-26T07:53:55.615Z,9.43
2022-10-26T07:56:25.303Z,12.20
2022-10-26T07:58:57.673Z,14.23
2022-10-26T08:01:27.710Z,14.13
2022-10-26T08:03:58.367Z,13.43
2022-10-26T08:06:28.285Z,16.90
2022-10-26T08:08:57.907Z,13.57
2022-10-26T08:11:27.896Z,13.77
2022-10-26T08:13:57.832Z,16.17
2022-10-26T08:16:27.658Z,15.82
2022-10-26T08:18:57.656Z,15.77
2022-10-26T08:21:39.120Z,14.77
2022-10-26T08:24:09.976Z,11.77
2022-10-26T08:26:39.685Z,17.67
2022-10-26T08:29:09.593Z,14.65
2022-10-26T08:31:42.070Z,15.40
2022-10-26T08:34:12.144Z,11.60
2022-10-26T08:36:42.079Z,16.67
2022-10-26T08:39:11.763Z,15.18
2022-10-26T08:41:41.445Z,14.48
2022-10-26T08:44:16.094Z,20.73
2022-10-26T08:46:47.437Z,16.92
2022-10-26T08:49:25.788Z,19.05
2022-10-26T08:51:57.565Z,17.80
2022-10-26T08:54:43.500Z,19.52
2022-10-26T08:57:18.096Z,10.55
2022-10-26T08:59:52.091Z,19.33
2022-10-26T09:02:22.232Z,15.57
2022-10-26T09:04:51.973Z,15.00
2022-10-26T09:07:31.438Z,17.13
2022-10-26T09:13:09.211Z,17.08
2022-10-26T09:16:05.209Z,13.07
2022-10-26T09:19:07.609Z,16.30
2022-10-26T09:21:50.529Z,16.30
2022-10-26T09:24:25.615Z,14.02
2022-10-26T09:27:24.263Z,13.93
2022-10-26T09:29:54.465Z,16.48
2022-10-26T09:32:26.330Z,18.25
2022-10-26T09:34:56.785Z,20.67
2022-10-26T09:37:37.089Z,17.55
2022-10-26T09:40:15.369Z,15.20
2022-10-26T09:42:47.035Z,16.50
2022-10-26T09:45:21.121Z,18.80
2022-10-26T09:47:54.674Z,14.90
2022-10-26T09:50:24.544Z,16.85
2022-10-26T09:52:54.200Z,17.63
2022-10-26T09:55:24.325Z,21.52
2022-10-26T09:57:55.686Z,23.17
2022-10-26T10:00:25.990Z,20.88
2022-10-26T10:02:56.878Z,16.42
2022-10-26T10:05:49.824Z,14.80
2022-10-26T10:08:27.157Z,22.00
2022-10-26T10:10:57.697Z,22.40
2022-10-26T10:13:27.951Z,16.88
2022-10-26T10:15:58.510Z,19.13
2022-10-26T10:18:28.183Z,19.35
2022-10-26T10:21:03.184Z,19.85
2022-10-26T10:23:38.405Z,16.85
2022-10-26T10:26:18.316Z,16.83
2022-10-26T10:29:01.676Z,16.15
2022-10-26T10:31:35.347Z,15.52
2022-10-26T10:34:22.585Z,21.25
2022-10-26T10:36:53.012Z,12.75
2022-10-26T10:39:35.306Z,18.83
2022-10-26T10:42:05.557Z,14.85
2022-10-26T10:44:35.448Z,15.60
2022-10-26T10:47:05.589Z,13.88
2022-10-26T10:49:35.582Z,32.75
2022-10-26T10:52:05.410Z,20.85
2022-10-26T10:54:38.945Z,21.92
2022-10-26T10:57:12.779Z,18.70
2022-10-26T10:59:42.786Z,17.98
2022-10-26T11:02:34.014Z,17.25
2022-10-26T11:05:24.900Z,19.20
2022-10-26T11:08:01.345Z,21.67
2022-10-26T11:10:32.184Z,22.45
2022-10-26T11:13:05.746Z,28.83
2022-10-26T11:15:36.496Z,21.23
2022-10-26T11:18:16.558Z,27.77
2022-10-26T11:20:48.482Z,25.63
2022-10-26T11:23:26.382Z,20.88
2022-10-26T11:25:56.941Z,26.33
2022-10-26T11:28:34.348Z,26.52
2022-10-26T11:31:06.210Z,24.05
2022-10-26T11:33:37.131Z,23.63
2022-10-26T11:36:16.047Z,24.75
2022-10-26T11:38:56.758Z,22.33
2022-10-26T11:41:28.879Z,28.45
2022-10-26T11:44:04.868Z,21.60
2022-10-26T11:46:40.050Z,25.20
2022-10-26T11:49:12.975Z,25.30
2022-10-26T11:51:45.912Z,26.08
2022-10-26T11:54:38.434Z,25.58
2022-10-26T11:57:08.329Z,27.33
2022-10-26T11:59:39.845Z,32.95
2022-10-26T12:02:13.499Z,29.55
2022-10-26T12:04:43.323Z,25.17
2022-10-26T12:07:17.073Z,32.85
2022-10-26T12:09:47.173Z,24.42
2022-10-26T12:12:33.797Z,22.88
2022-10-26T12:15:30.858Z,22.65
2022-10-26T12:18:36.828Z,23.58
2022-10-26T12:21:12.524Z,24.08
2022-10-26T12:23:56.021Z,16.98
2022-10-26T12:26:32.013Z,23.23
2022-10-26T12:29:04.967Z,26.02
2022-10-26T12:31:37.100Z,23.33
2022-10-26T12:34:07.469Z,25.40
2022-10-26T12:36:53.453Z,25.35
2022-10-26T12:39:32.942Z,19.67
2022-10-26T12:42:08.693Z,22.13
2022-10-26T12:44:38.378Z,22.27
2022-10-26T12:47:07.971Z,20.63
2022-10-26T12:49:56.098Z,26.35
2022-10-26T12:52:30.314Z,24.90
2022-10-26T12:55:16.329Z,20.65
2022-10-26T12:58:01.558Z,22.10
2022-10-26T13:03:20.246Z,20.67
2022-10-26T13:05:53.778Z,25.75
2022-10-26T13:08:23.658Z,22.13
2022-10-26T13:11:04.110Z,23.80
2022-10-26T13:13:34.693Z,25.13
2022-10-26T13:16:05.554Z,28.45
2022-10-26T13:18:39.650Z,23.25
2022-10-26T13:21:11.485Z,25.98
2022-10-26T13:23:42.670Z,23.17
2022-10-26T13:26:16.684Z,21.38
2022-10-26T13:28:47.946Z,22.35
2022-10-26T13:31:42.975Z,26.13
2022-10-26T13:34:16.149Z,23.42
2022-10-26T13:36:48.498Z,21.40
2022-10-26T13:39:18.131Z,24.30
2022-10-26T13:41:54.640Z,31.73
2022-10-26T13:44:44.222Z,27.25
2022-10-26T13:47:15.387Z,25.15
2022-10-26T13:49:46.204Z,35.92
2022-10-26T13:52:32.483Z,26.45
2022-10-26T13:55:06.854Z,27.38
2022-10-26T13:57:45.250Z,30.42
2022-10-26T14:00:24.399Z,45.60
2022-10-26T14:07:59.129Z,27.08
2022-10-26T14:10:33.033Z,38.47
2022-10-26T14:13:02.846Z,34.50
2022-10-26T14:15:33.740Z,31.42
2022-10-26T14:18:03.749Z,26.77
2022-10-26T14:20:34.295Z,38.67
2022-10-26T14:23:04.025Z,33.75
2022-10-26T14:25:42.915Z,28.45
2022-10-26T14:28:24.170Z,33.58
2022-10-26T14:30:54.137Z,33.08
2022-10-26T14:33:27.078Z,36.70
2022-10-26T14:35:56.736Z,22.80
2022-10-26T14:38:30.734Z,26.77
2022-10-26T14:41:00.651Z,29.27
2022-10-26T14:43:30.518Z,28.85
2022-10-26T14:46:00.193Z,23.25
2022-10-26T14:48:34.086Z,30.08
2022-10-26T14:51:03.760Z,27.90
2022-10-26T14:53:37.786Z,33.15
2022-10-26T14:56:08.154Z,25.23
2022-10-26T14:58:37.929Z,38.05
2022-10-26T15:01:28.288Z,32.03
2022-10-26T15:04:07.479Z,30.45
2022-10-26T15:06:38.668Z,34.92
2022-10-26T15:09:08.383Z,25.20
2022-10-26T15:11:38.233Z,38.70
2022-10-26T15:14:07.832Z,32.78
2022-10-26T15:16:37.752Z,38.65
2022-10-26T15:19:11.665Z,29.48
2022-10-26T15:21:44.822Z,30.85
2022-10-26T15:24:23.682Z,24.92
2022-10-26T15:26:53.292Z,22.10
2022-10-26T15:29:41.358Z,28.85
2022-10-26T15:32:23.684Z,33.78
2022-10-26T15:35:10.260Z,36.03
2022-10-26T15:37:40.414Z,34.65
2022-10-26T15:40:10.408Z,39.88
2022-10-26T15:42:40.511Z,37.75
2022-10-26T15:45:16.586Z,35.83
2022-10-26T15:47:46.216Z,41.70
2022-10-26T15:50:16.700Z,31.55
2022-10-26T15:52:49.116Z,32.67
2022-10-26T15:55:19.970Z,28.17
2022-10-26T15:57:49.805Z,38.58
2022-10-26T16:00:19.736Z,28.30
2022-10-26T16:02:49.609Z,25.48
2022-10-26T16:05:19.527Z,29.33
2022-10-26T16:07:49.757Z,29.73
2022-10-26T16:10:26.350Z,24.52
2022-10-26T16:12:56.005Z,24.67
2022-10-26T16:15:26.593Z,28.83
2022-10-26T16:17:56.480Z,26.33
2022-10-26T16:20:29.099Z,27.55
2022-10-26T16:23:00.892Z,38.03
2022-10-26T16:25:30.601Z,25.00
2022-10-26T16:28:01.255Z,24.90
2022-10-26T16:30:32.493Z,31.60
2022-10-26T16:33:02.711Z,31.88
2022-10-26T16:35:32.376Z,23.45
2022-10-26T16:38:02.340Z,26.55
2022-10-26T16:40:32.185Z,29.42
2022-10-26T16:43:01.787Z,27.27
2022-10-26T16:45:31.384Z,21.75
2022-10-26T16:48:01.071Z,23.30
2022-10-26T16:50:35.433Z,21.73
2022-10-26T16:53:06.092Z,22.42
2022-10-26T16:55:35.716Z,36.33
2022-10-26T16:58:05.448Z,29.65
2022-10-26T17:00:37.203Z,30.58
2022-10-26T17:03:07.169Z,22.75
2022-10-26T17:05:37.059Z,25.70
2022-10-26T17:08:06.689Z,31.83
2022-10-26T17:10:36.643Z,35.47
2022-10-26T17:13:06.309Z,30.25
2022-10-26T17:15:35.862Z,24.73
2022-10-26T17:18:05.818Z,26.10
2022-10-26T17:20:35.540Z,23.42
2022-10-26T17:23:05.469Z,23.83
2022-10-26T17:25:39.957Z,21.77
2022-10-26T17:28:09.497Z,24.40
2022-10-26T17:30:39.491Z,19.42
2022-10-26T17:33:09.719Z,17.90
2022-10-26T17:35:39.585Z,21.02
2022-10-26T17:38:09.188Z,23.45
2022-10-26T17:40:38.843Z,26.58
2022-10-26T17:43:08.449Z,19.60
2022-10-26T17:45:37.995Z,23.88
2022-10-26T17:48:07.662Z,25.63
2022-10-26T17:50:37.310Z,23.20
2022-10-26T17:53:08.924Z,32.53
2022-10-26T17:55:38.539Z,29.73
2022-10-26T17:58:08.207Z,18.60
2022-10-26T18:00:37.936Z,22.42
2022-10-26T18:03:07.660Z,31.33
2022-10-26T18:05:37.601Z,30.92
2022-10-26T18:08:07.337Z,21.52
2022-10-26T18:10:38.224Z,28.73
2022-10-26T18:13:08.233Z,28.05
2022-10-26T18:15:38.429Z,22.05
2022-10-26T18:18:08.360Z,21.90
2022-10-26T18:20:38.212Z,23.25
2022-10-26T18:23:07.852Z,28.13
2022-10-26T18:25:38.031Z,30.27
2022-10-26T18:28:07.711Z,22.50
2022-10-26T18:30:37.445Z,32.67
2022-10-26T18:33:07.093Z,25.73
2022-10-26T18:35:36.702Z,21.80
2022-10-26T18:38:06.340Z,25.00
2022-10-26T18:40:36.263Z,19.63
2022-10-26T18:43:05.891Z,24.50
2022-10-26T18:45:35.565Z,22.35
2022-10-26T18:48:05.385Z,16.50
2022-10-26T18:50:35.218Z,25.02
2022-10-26T18:53:05.100Z,27.45
2022-10-26T18:55:34.835Z,20.33
2022-10-26T18:58:04.518Z,21.00
2022-10-26T19:00:34.289Z,23.70
2022-10-26T19:03:06.074Z,18.40
2022-10-26T19:05:40.281Z,25.83
2022-10-26T19:08:13.041Z,21.85
2022-10-26T19:10:42.730Z,19.67
2022-10-26T19:13:12.576Z,19.77
2022-10-26T19:15:42.243Z,14.02
2022-10-26T19:18:11.983Z,21.55
2022-10-26T19:20:42.792Z,21.13
2022-10-26T19:23:15.031Z,16.92
2022-10-26T19:25:45.003Z,14.32
2022-10-26T19:28:14.650Z,19.00
2022-10-26T19:30:44.410Z,16.52
2022-10-26T19:33:13.987Z,20.67
2022-10-26T19:35:43.803Z,13.25
2022-10-26T19:38:13.667Z,21.50
2022-10-26T19:40:43.421Z,22.63
2022-10-26T19:43:14.175Z,18.95
2022-10-26T19:45:43.818Z,17.70
2022-10-26T19:48:13.590Z,20.67
2022-10-26T19:50:43.320Z,15.15
2022-10-26T19:53:12.973Z,28.50
2022-10-26T19:55:45.589Z,17.23
2022-10-26T19:58:15.354Z,18.73
2022-10-26T20:00:45.239Z,20.67
2022-10-26T20:03:15.012Z,21.45
2022-10-26T20:05:45.360Z,18.48
2022-10-26T20:08:15.085Z,18.48
2022-10-26T20:10:45.612Z,16.75
2022-10-26T20:13:15.915Z,14.93
2022-10-26T20:15:45.546Z,24.70
2022-10-26T20:18:15.954Z,17.50
2022-10-26T20:20:45.772Z,19.42
2022-10-26T20:23:15.626Z,17.27
2022-10-26T20:25:51.663Z,28.02
2022-10-26T20:28:21.706Z,17.52
2022-10-26T20:30:51.782Z,18.80
2022-10-26T20:33:21.469Z,26.20
2022-10-26T20:35:51.046Z,13.77
2022-10-26T20:38:22.479Z,20.58
2022-10-26T20:41:03.717Z,22.23
2022-10-26T20:43:36.365Z,20.90
2022-10-26T20:46:06.105Z,24.50
2022-10-26T20:48:35.850Z,17.48
2022-10-26T20:51:23.758Z,18.15
2022-10-26T20:54:07.866Z,18.98
2022-10-26T20:56:37.698Z,18.13
2022-10-26T20:59:08.491Z,20.38
2022-10-26T21:01:39.932Z,19.45
2022-10-26T21:04:09.833Z,17.40
2022-10-26T21:06:42.507Z,15.65
2022-10-26T21:09:12.157Z,13.85
2022-10-26T21:11:42.391Z,17.55
2022-10-26T21:14:12.020Z,25.65
2022-10-26T21:16:41.797Z,20.75
2022-10-26T21:19:11.683Z,24.48
2022-10-26T21:21:42.464Z,26.13
2022-10-26T21:24:14.070Z,19.85
2022-10-26T21:26:43.659Z,24.90
2022-10-26T21:29:13.438Z,25.33
2022-10-26T21:31:43.410Z,21.35
2022-10-26T21:34:13.252Z,22.27
2022-10-26T21:36:42.926Z,17.83
2022-10-26T21:39:12.604Z,19.27
2022-10-26T21:41:42.313Z,19.83
2022-10-26T21:44:24.641Z,30.08
2022-10-26T21:47:01.650Z,23.88
2022-10-26T21:49:31.529Z,21.23
2022-10-26T21:52:01.508Z,19.33
2022-10-26T21:54:31.085Z,19.80
2022-10-26T21:57:00.927Z,19.20
2022-10-26T21:59:30.834Z,17.30
2022-10-26T22:02:00.621Z,19.75
2022-10-26T22:04:30.716Z,26.35
2022-10-26T22:07:00.348Z,20.45
2022-10-26T22:09:30.204Z,19.65
2022-10-26T22:11:59.886Z,21.13
2022-10-26T22:14:29.539Z,20.77
2022-10-26T22:16:59.092Z,18.15
2022-10-26T22:19:28.750Z,16.10
2022-10-26T22:21:58.435Z,21.15
2022-10-26T22:24:28.322Z,18.25
2022-10-26T22:26:59.260Z,16.95
2022-10-26T22:29:28.996Z,23.10
2022-10-26T22:31:58.920Z,20.95
2022-10-26T22:34:28.652Z,21.30
2022-10-26T22:36:58.504Z,19.20
2022-10-26T22:39:28.210Z,22.17
2022-10-26T22:41:58.032Z,23.58
2022-10-26T22:44:27.675Z,20.67
2022-10-26T22:46:57.370Z,21.08
2022-10-26T22:49:27.162Z,15.75
2022-10-26T22:51:56.926Z,18.00
2022-10-26T22:54:26.962Z,28.48
2022-10-26T22:56:56.886Z,19.23
2022-10-26T22:59:26.771Z,19.73
2022-10-26T23:01:56.708Z,23.75
2022-10-26T23:04:29.237Z,24.23
2022-10-26T23:06:59.076Z,23.70
2022-10-26T23:09:28.977Z,27.15
2022-10-26T23:11:58.668Z,25.52
2022-10-26T23:14:28.325Z,24.38
2022-10-26T23:16:58.049Z,31.88
2022-10-26T23:19:27.784Z,41.47
2022-10-26T23:21:57.582Z,43.05
2022-10-26T23:24:27.217Z,35.95
2022-10-26T23:26:57.118Z,39.55
2022-10-26T23:29:26.977Z,37.78
2022-10-26T23:31:57.123Z,32.17
2022-10-26T23:34:26.960Z,38.78
2022-10-26T23:36:56.737Z,32.45
2022-10-26T23:39:26.425Z,31.80
2022-10-26T23:41:56.277Z,25.05
2022-10-26T23:44:25.964Z,27.27
2022-10-26T23:46:55.741Z,22.05
2022-10-26T23:49:25.459Z,25.65
2022-10-26T23:51:55.356Z,28.90
2022-10-26T23:54:25.190Z,34.65
2022-10-26T23:56:54.919Z,29.45
2022-10-26T23:59:24.699Z,32.35
